createdAt,value
2022-09-15T00:00:55.492Z,19.30
2022-09-15T00:03:22.803Z,18.60
2022-09-15T00:05:49.521Z,18.60
2022-09-15T00:08:16.392Z,17.80
2022-09-15T00:10:55.815Z,18.10
2022-09-15T00:13:22.802Z,17.70
2022-09-15T00:15:49.544Z,18.90
2022-09-15T00:18:16.213Z,17.00
2022-09-15T00:20:43.613Z,17.70
2022-09-15T00:23:11.281Z,18.10
2022-09-15T00:25:45.939Z,17.10
2022-09-15T00:28:13.236Z,17.60
2022-09-15T00:30:40.789Z,16.90
2022-09-15T00:33:07.359Z,17.10
2022-09-15T00:35:36.603Z,16.90
2022-09-15T00:38:03.188Z,17.00
2022-09-15T00:42:58.390Z,17.70
2022-09-15T00:45:25.600Z,17.50
2022-09-15T00:47:52.602Z,17.70
2022-09-15T00:50:20.489Z,17.10
2022-09-15T00:52:54.539Z,17.00
2022-09-15T00:55:24.135Z,17.40
2022-09-15T00:57:56.129Z,16.40
2022-09-15T01:00:24.473Z,17.40
2022-09-15T01:02:51.105Z,17.20
2022-09-15T01:05:19.387Z,17.00
2022-09-15T01:07:48.115Z,16.90
2022-09-15T01:10:24.478Z,16.80
2022-09-15T01:15:18.069Z,17.00
2022-09-15T01:22:48.860Z,17.10
2022-09-15T01:25:35.181Z,17.20
2022-09-15T01:28:20.037Z,17.20
2022-09-15T01:30:59.493Z,17.20
2022-09-15T01:33:29.042Z,17.10
2022-09-15T01:36:02.190Z,17.10
2022-09-15T01:38:31.828Z,17.00
2022-09-15T01:41:01.324Z,17.00
2022-09-15T01:43:29.502Z,17.30
2022-09-15T01:48:25.501Z,16.90
2022-09-15T01:50:53.947Z,17.00
2022-09-15T02:10:51.524Z,16.70
2022-09-15T02:13:32.708Z,16.90
2022-09-15T02:16:00.023Z,16.80
2022-09-15T02:18:34.550Z,16.90
2022-09-15T02:21:21.983Z,16.40
2022-09-15T02:23:51.193Z,16.70
2022-09-15T02:26:19.566Z,16.70
2022-09-15T02:28:47.027Z,16.80
2022-09-15T02:31:15.905Z,16.80
2022-09-15T02:33:44.958Z,16.80
2022-09-15T02:36:12.591Z,16.70
2022-09-15T02:41:06.327Z,16.60
2022-09-15T02:43:33.528Z,16.60
2022-09-15T02:46:00.490Z,16.10
2022-09-15T02:48:27.073Z,15.70
2022-09-15T02:50:53.631Z,15.90
2022-09-15T02:53:20.277Z,17.80
2022-09-15T02:55:47.058Z,17.50
2022-09-15T02:58:13.659Z,16.20
2022-09-15T03:00:40.213Z,16.10
2022-09-15T03:03:06.802Z,16.40
2022-09-15T03:05:33.356Z,16.20
2022-09-15T03:07:59.967Z,16.50
2022-09-15T03:10:26.604Z,16.50
2022-09-15T03:12:54.106Z,16.40
2022-09-15T03:15:21.913Z,16.60
2022-09-15T03:17:49.595Z,16.70
2022-09-15T03:20:18.649Z,16.50
2022-09-15T03:22:48.051Z,17.50
2022-09-15T03:27:58.171Z,16.60
2022-09-15T03:30:25.225Z,18.00
2022-09-15T03:32:52.136Z,16.70
2022-09-15T03:35:18.740Z,17.70
2022-09-15T03:37:45.874Z,15.90
2022-09-15T03:40:12.530Z,16.40
2022-09-15T03:42:39.248Z,16.10
2022-09-15T03:45:06.049Z,16.40
2022-09-15T03:47:32.750Z,16.60
2022-09-15T03:49:59.887Z,18.00
2022-09-15T03:52:26.479Z,17.40
2022-09-15T03:54:53.106Z,17.80
2022-09-15T03:57:19.752Z,18.00
2022-09-15T03:59:46.494Z,16.00
2022-09-15T04:02:14.261Z,16.40
2022-09-15T04:04:41.386Z,15.90
2022-09-15T04:07:09.099Z,15.70
2022-09-15T04:09:37.297Z,15.90
2022-09-15T04:12:04.113Z,16.00
2022-09-15T04:14:30.683Z,16.30
2022-09-15T04:16:57.341Z,16.00
2022-09-15T04:19:23.913Z,18.20
2022-09-15T04:21:50.566Z,16.00
2022-09-15T04:24:17.198Z,15.90
2022-09-15T04:26:44.656Z,16.10
2022-09-15T04:29:13.362Z,18.20
2022-09-15T04:31:40.119Z,16.30
2022-09-15T04:34:06.740Z,16.20
2022-09-15T04:36:33.399Z,15.90
2022-09-15T04:41:27.352Z,16.30
2022-09-15T04:43:54.231Z,15.70
2022-09-15T04:46:21.095Z,16.20
2022-09-15T04:48:48.853Z,15.90
2022-09-15T04:51:19.726Z,16.40
2022-09-15T04:53:46.382Z,15.90
2022-09-15T04:56:14.338Z,15.70
2022-09-15T04:58:43.295Z,15.70
2022-09-15T05:01:14.170Z,15.50
2022-09-15T05:03:41.052Z,16.40
2022-09-15T05:06:08.941Z,15.60
2022-09-15T05:08:36.365Z,16.30
2022-09-15T05:11:03.818Z,17.50
2022-09-15T05:13:30.444Z,15.80
2022-09-15T05:16:03.013Z,17.50
2022-09-15T05:18:29.654Z,15.80
2022-09-15T05:21:03.270Z,18.10
2022-09-15T05:23:30.092Z,16.40
2022-09-15T05:26:01.676Z,18.20
2022-09-15T05:28:28.451Z,16.30
2022-09-15T05:30:55.597Z,17.80
2022-09-15T05:33:22.954Z,15.70
2022-09-15T05:35:52.131Z,16.10
2022-09-15T05:38:18.805Z,18.20
2022-09-15T05:40:45.521Z,15.60
2022-09-15T05:43:12.395Z,17.30
2022-09-15T05:45:42.214Z,15.70
2022-09-15T05:48:09.385Z,15.70
2022-09-15T05:50:36.324Z,17.70
2022-09-15T05:53:03.539Z,15.70
2022-09-15T05:55:30.406Z,17.60
2022-09-15T05:57:57.397Z,17.50
2022-09-15T06:00:24.729Z,17.70
2022-09-15T06:02:51.389Z,15.70
2022-09-15T06:05:18.236Z,16.10
2022-09-15T06:07:44.882Z,17.70
2022-09-15T06:12:38.578Z,16.00
2022-09-15T06:15:05.427Z,16.00
2022-09-15T06:17:32.854Z,15.90
2022-09-15T06:19:59.532Z,15.50
2022-09-15T06:22:28.198Z,15.70
2022-09-15T06:24:54.834Z,15.20
2022-09-15T06:27:21.442Z,17.50
2022-09-15T06:29:48.853Z,15.40
2022-09-15T06:34:42.600Z,15.70
2022-09-15T06:37:09.370Z,15.10
2022-09-15T06:42:05.635Z,15.60
2022-09-15T06:44:32.507Z,16.60
2022-09-15T06:46:59.167Z,15.60
2022-09-15T06:49:26.103Z,17.20
2022-09-15T06:51:52.709Z,17.20
2022-09-15T06:54:19.366Z,15.40
2022-09-15T06:56:45.968Z,15.40
2022-09-15T06:59:13.200Z,15.30
2022-09-15T07:01:40.084Z,18.20
2022-09-15T07:04:09.760Z,15.20
2022-09-15T07:06:37.469Z,17.60
2022-09-15T07:09:05.310Z,17.00
2022-09-15T07:11:32.152Z,16.00
2022-09-15T07:13:58.794Z,15.30
2022-09-15T07:16:25.893Z,17.40
2022-09-15T07:18:54.283Z,15.90
2022-09-15T07:21:21.562Z,15.30
2022-09-15T07:23:48.707Z,17.60
2022-09-15T07:26:16.729Z,15.30
2022-09-15T07:28:44.874Z,15.30
2022-09-15T07:31:12.900Z,17.60
2022-09-15T07:33:39.654Z,15.10
2022-09-15T07:36:07.174Z,15.40
2022-09-15T07:38:34.081Z,15.80
2022-09-15T07:41:08.369Z,17.10
2022-09-15T07:43:34.948Z,15.50
2022-09-15T07:46:01.938Z,15.20
2022-09-15T07:48:28.745Z,15.40
2022-09-15T07:50:55.438Z,17.00
2022-09-15T07:53:22.093Z,15.40
2022-09-15T07:55:52.777Z,15.20
2022-09-15T07:58:19.725Z,15.90
2022-09-15T08:00:47.519Z,17.40
2022-09-15T08:03:14.815Z,14.80
2022-09-15T08:05:45.388Z,17.20
2022-09-15T08:08:12.830Z,16.90
2022-09-15T08:10:41.232Z,15.60
2022-09-15T08:13:08.415Z,17.00
2022-09-15T08:15:35.763Z,16.70
2022-09-15T08:18:02.687Z,15.80
2022-09-15T08:20:29.331Z,16.40
2022-09-15T08:22:55.943Z,16.20
2022-09-15T08:25:22.588Z,15.90
2022-09-15T08:27:52.478Z,16.00
2022-09-15T08:30:19.172Z,16.60
2022-09-15T08:32:46.659Z,16.40
2022-09-15T08:35:14.822Z,17.20
2022-09-15T08:37:41.538Z,16.10
2022-09-15T08:40:14.247Z,18.00
2022-09-15T08:42:44.827Z,16.30
2022-09-15T08:45:18.264Z,16.00
2022-09-15T08:47:46.492Z,16.10
2022-09-15T08:50:27.401Z,15.90
2022-09-15T08:52:57.933Z,16.20
2022-09-15T08:55:37.399Z,17.70
2022-09-15T08:58:17.656Z,16.10
2022-09-15T09:00:45.784Z,16.60
2022-09-15T09:03:15.594Z,18.00
2022-09-15T09:05:45.772Z,16.30
2022-09-15T09:08:12.331Z,16.70
2022-09-15T09:10:44.880Z,18.30
2022-09-15T09:13:11.536Z,17.00
2022-09-15T09:15:41.160Z,17.50
2022-09-15T09:18:10.984Z,16.40
2022-09-15T09:20:38.718Z,16.40
2022-09-15T09:23:09.031Z,16.40
2022-09-15T09:25:36.717Z,16.20
2022-09-15T09:28:23.004Z,17.00
2022-09-15T09:30:49.708Z,18.20
2022-09-15T09:33:26.759Z,17.10
2022-09-15T09:35:53.603Z,17.10
2022-09-15T09:38:22.642Z,19.10
2022-09-15T09:40:49.823Z,18.60
2022-09-15T09:43:16.793Z,17.90
2022-09-15T09:45:43.838Z,18.80
2022-09-15T09:48:15.557Z,17.00
2022-09-15T09:50:45.553Z,17.20
2022-09-15T09:53:17.720Z,17.50
2022-09-15T09:55:45.856Z,17.20
2022-09-15T09:58:14.541Z,18.00
2022-09-15T10:00:41.467Z,18.20
2022-09-15T10:03:15.996Z,17.90
2022-09-15T10:05:43.458Z,17.60
2022-09-15T10:08:17.827Z,18.20
2022-09-15T10:10:54.366Z,18.10
2022-09-15T10:13:21.206Z,20.50
2022-09-15T10:15:59.394Z,19.30
2022-09-15T10:18:28.057Z,17.90
2022-09-15T10:23:21.744Z,16.40
2022-09-15T10:25:59.469Z,18.70
2022-09-15T10:28:27.490Z,19.00
2022-09-15T10:31:16.045Z,18.70
2022-09-15T10:33:46.107Z,17.60
2022-09-15T10:36:13.837Z,19.00
2022-09-15T10:38:43.437Z,18.20
2022-09-15T10:41:09.993Z,17.70
2022-09-15T10:44:01.995Z,18.10
2022-09-15T10:46:37.525Z,17.70
2022-09-15T10:49:06.040Z,19.00
2022-09-15T10:51:51.690Z,19.10
2022-09-15T10:54:36.934Z,18.00
2022-09-15T10:57:22.506Z,17.60
2022-09-15T10:59:56.274Z,17.70
2022-09-15T11:02:38.200Z,18.70
2022-09-15T11:05:23.893Z,17.90
2022-09-15T11:07:56.647Z,17.80
2022-09-15T11:10:23.265Z,17.70
2022-09-15T11:13:08.759Z,18.70
2022-09-15T11:15:48.485Z,17.40
2022-09-15T11:18:15.282Z,17.70
2022-09-15T11:20:48.030Z,18.10
2022-09-15T11:23:44.210Z,18.50
2022-09-15T11:26:15.874Z,18.10
2022-09-15T11:31:14.405Z,17.90
2022-09-15T11:33:44.367Z,18.00
2022-09-15T11:36:22.949Z,17.60
2022-09-15T11:38:59.555Z,17.70
2022-09-15T11:41:33.986Z,17.90
2022-09-15T11:44:06.033Z,18.50
2022-09-15T11:46:51.822Z,20.60
2022-09-15T11:49:24.983Z,18.90
2022-09-15T11:52:03.139Z,20.00
2022-09-15T11:54:34.653Z,20.40
2022-09-15T11:59:32.622Z,19.90
2022-09-15T12:02:18.044Z,20.10
2022-09-15T12:04:56.669Z,19.20
2022-09-15T12:07:28.872Z,20.70
2022-09-15T12:09:55.923Z,20.80
2022-09-15T12:12:22.994Z,19.00
2022-09-15T12:14:51.551Z,19.70
2022-09-15T12:17:29.782Z,21.10
2022-09-15T12:20:06.016Z,19.40
2022-09-15T12:22:40.453Z,19.40
2022-09-15T12:25:16.611Z,19.10
2022-09-15T12:27:43.241Z,19.10
2022-09-15T12:30:29.866Z,19.20
2022-09-15T12:32:56.618Z,20.10
2022-09-15T12:35:23.258Z,21.10
2022-09-15T12:40:37.202Z,21.50
2022-09-15T12:43:25.026Z,21.40
2022-09-15T12:50:53.169Z,20.20
2022-09-15T12:58:19.722Z,18.70
2022-09-15T13:03:37.423Z,18.10
2022-09-15T13:06:10.024Z,18.00
2022-09-15T13:08:36.515Z,18.00
2022-09-15T13:11:04.729Z,18.00
2022-09-15T13:23:24.086Z,17.60
2022-09-15T13:28:17.763Z,17.40
2022-09-15T13:30:53.885Z,17.50
2022-09-15T13:39:46.937Z,19.50
2022-09-15T13:44:53.078Z,21.60
2022-09-15T13:47:30.147Z,20.00
2022-09-15T13:50:13.148Z,20.10
2022-09-15T13:52:45.743Z,19.80
2022-09-15T13:55:17.107Z,19.40
2022-09-15T14:00:34.069Z,20.50
2022-09-15T14:03:02.889Z,21.00
2022-09-15T14:05:31.057Z,20.10
2022-09-15T14:08:01.492Z,19.90
2022-09-15T14:10:31.631Z,20.10
2022-09-15T14:12:59.505Z,19.90
2022-09-15T14:15:27.192Z,20.30
2022-09-15T14:17:53.777Z,19.70
2022-09-15T14:20:31.186Z,19.50
2022-09-15T14:23:03.095Z,18.50
2022-09-15T14:25:30.642Z,18.70
2022-09-15T14:27:57.259Z,19.40
2022-09-15T14:30:25.327Z,19.80
2022-09-15T14:32:53.331Z,20.40
2022-09-15T14:37:48.744Z,18.10
2022-09-15T14:40:32.538Z,19.20
2022-09-15T14:42:59.250Z,18.10
2022-09-15T15:17:42.997Z,19.70
2022-09-15T15:20:09.606Z,20.00
2022-09-15T15:22:40.304Z,19.20
2022-09-15T15:25:37.343Z,19.30
2022-09-15T15:28:04.778Z,19.00
2022-09-15T15:30:36.530Z,20.60
2022-09-15T15:33:15.123Z,19.80
2022-09-15T15:35:45.435Z,19.20
2022-09-15T15:40:40.502Z,18.50
2022-09-15T15:43:14.018Z,18.30
2022-09-15T15:45:57.816Z,17.80
2022-09-15T16:01:03.094Z,17.60
2022-09-15T16:05:58.330Z,17.30
2022-09-15T16:08:28.073Z,18.60
2022-09-15T16:10:55.259Z,17.20
2022-09-15T16:15:49.319Z,16.90
2022-09-15T16:18:16.260Z,16.70
2022-09-15T16:20:42.955Z,17.90
2022-09-15T16:23:16.843Z,17.50
2022-09-15T16:28:10.481Z,16.50
2022-09-15T16:30:37.132Z,16.50
2022-09-15T16:35:36.461Z,16.70
2022-09-15T16:38:03.308Z,16.70
2022-09-15T16:40:29.965Z,16.60
2022-09-15T16:42:56.642Z,17.90
2022-09-15T16:47:50.267Z,16.60
2022-09-15T16:50:16.868Z,16.40
2022-09-15T16:52:43.646Z,16.30
2022-09-15T16:55:15.415Z,16.20
2022-09-15T17:14:51.020Z,15.60
2022-09-15T17:17:24.590Z,16.90
2022-09-15T17:19:51.169Z,15.50
2022-09-15T17:22:17.763Z,15.30
2022-09-15T17:24:44.328Z,16.70
2022-09-15T17:27:10.900Z,16.60
2022-09-15T17:32:04.519Z,15.20
2022-09-15T17:34:31.122Z,15.10
2022-09-15T17:36:57.703Z,15.90
2022-09-15T17:39:24.253Z,16.00
2022-09-15T17:41:51.119Z,16.00
2022-09-15T17:44:17.679Z,14.90
2022-09-15T17:46:44.330Z,14.70
2022-09-15T17:49:10.958Z,15.60
2022-09-15T17:51:37.502Z,16.70
2022-09-15T17:54:04.205Z,15.50
2022-09-15T17:56:31.027Z,14.70
2022-09-15T17:58:57.601Z,13.70
2022-09-15T18:01:24.184Z,15.50
2022-09-15T18:03:50.937Z,15.50
2022-09-15T18:06:17.800Z,14.70
2022-09-15T18:08:44.447Z,14.80
2022-09-15T18:11:13.199Z,13.20
2022-09-15T18:13:39.755Z,13.10
2022-09-15T18:16:07.832Z,14.20
2022-09-15T18:18:34.499Z,14.60
2022-09-15T18:21:01.437Z,15.20
2022-09-15T18:23:29.438Z,14.50
2022-09-15T18:25:56.587Z,14.30
2022-09-15T18:28:23.132Z,14.30
2022-09-15T18:30:50.248Z,14.40
2022-09-15T18:33:23.833Z,14.30
2022-09-15T18:35:56.648Z,14.10
2022-09-15T18:38:23.398Z,14.10
2022-09-15T18:43:17.317Z,13.90
2022-09-15T18:45:44.982Z,13.80
2022-09-15T18:50:40.470Z,13.70
2022-09-15T18:53:07.065Z,13.70
2022-09-15T18:55:33.627Z,13.70
2022-09-15T18:58:01.083Z,13.70
2022-09-15T19:00:28.609Z,13.80
2022-09-15T19:02:59.390Z,13.70
2022-09-15T19:05:27.302Z,13.70
2022-09-15T19:07:54.092Z,13.70
2022-09-15T19:10:20.889Z,13.70
2022-09-15T19:12:47.455Z,13.70
2022-09-15T19:15:14.109Z,13.80
2022-09-15T19:17:41.856Z,13.70
2022-09-15T19:20:09.734Z,13.70
2022-09-15T19:22:36.666Z,13.60
2022-09-15T19:25:03.796Z,13.70
2022-09-15T19:27:30.347Z,13.70
2022-09-15T19:29:56.896Z,13.70
2022-09-15T19:32:23.665Z,13.60
2022-09-15T19:34:50.474Z,13.60
2022-09-15T19:37:19.008Z,13.60
2022-09-15T19:39:46.216Z,13.60
2022-09-15T19:42:13.452Z,13.60
2022-09-15T19:44:41.070Z,13.50
2022-09-15T19:47:08.418Z,12.90
2022-09-15T19:49:35.134Z,13.60
2022-09-15T19:52:01.765Z,13.60
2022-09-15T19:54:29.429Z,13.60
2022-09-15T19:56:56.265Z,13.60
2022-09-15T19:59:26.287Z,13.60
2022-09-15T20:01:55.578Z,13.70
2022-09-15T20:04:22.162Z,13.70
2022-09-15T20:06:48.759Z,13.60
2022-09-15T20:09:15.550Z,13.60
2022-09-15T20:11:42.088Z,13.70
2022-09-15T20:14:08.676Z,13.80
2022-09-15T20:16:35.379Z,12.60
2022-09-15T20:19:04.074Z,13.70
2022-09-15T20:21:49.206Z,13.60
2022-09-15T20:24:16.785Z,13.50
2022-09-15T20:26:43.340Z,13.50
2022-09-15T20:29:10.470Z,13.60
2022-09-15T20:31:37.323Z,13.60
2022-09-15T20:34:03.882Z,13.90
2022-09-15T20:36:33.831Z,13.40
2022-09-15T20:39:03.230Z,13.50
2022-09-15T20:41:31.818Z,13.40
2022-09-15T20:43:58.516Z,14.30
2022-09-15T20:46:25.245Z,13.40
2022-09-15T20:48:52.056Z,13.30
2022-09-15T20:51:23.043Z,13.50
2022-09-15T20:53:51.279Z,13.60
2022-09-15T20:56:21.057Z,13.70
2022-09-15T20:58:47.637Z,13.40
2022-09-15T21:01:15.271Z,13.40
2022-09-15T21:03:43.083Z,13.40
2022-09-15T21:06:14.095Z,13.30
2022-09-15T21:08:40.770Z,13.40
2022-09-15T21:11:10.227Z,13.20
2022-09-15T21:13:37.760Z,13.20
2022-09-15T21:16:07.699Z,13.20
2022-09-15T21:18:35.482Z,13.20
2022-09-15T21:21:07.293Z,13.30
2022-09-15T21:23:35.257Z,13.50
2022-09-15T21:26:03.546Z,13.40
2022-09-15T21:28:30.369Z,13.30
2022-09-15T21:31:04.648Z,13.30
2022-09-15T21:33:31.314Z,13.40
2022-09-15T21:36:05.144Z,13.40
2022-09-15T21:38:31.742Z,13.30
2022-09-15T21:40:58.319Z,13.40
2022-09-15T21:43:29.045Z,13.30
2022-09-15T21:45:56.598Z,13.20
2022-09-15T21:48:23.539Z,13.40
2022-09-15T21:50:51.054Z,12.90
2022-09-15T21:53:18.247Z,13.40
2022-09-15T21:55:44.843Z,13.30
2022-09-15T21:58:11.412Z,13.30
2022-09-15T22:00:40.158Z,13.30
2022-09-15T22:03:06.861Z,13.20
2022-09-15T22:05:33.471Z,13.30
2022-09-15T22:08:04.220Z,13.40
2022-09-15T22:10:32.268Z,14.30
2022-09-15T22:12:58.870Z,13.40
2022-09-15T22:15:25.818Z,13.20
2022-09-15T22:17:52.370Z,13.30
2022-09-15T22:20:19.003Z,13.40
2022-09-15T22:22:45.880Z,13.40
2022-09-15T22:25:13.470Z,13.30
2022-09-15T22:27:40.087Z,13.50
2022-09-15T22:30:07.083Z,13.40
2022-09-15T22:32:33.786Z,13.40
2022-09-15T22:35:00.431Z,13.10
2022-09-15T22:37:30.504Z,12.80
2022-09-15T22:39:59.158Z,13.10
2022-09-15T22:42:26.015Z,13.10
2022-09-15T22:44:52.630Z,13.40
2022-09-15T22:47:19.280Z,13.00
2022-09-15T22:49:45.826Z,13.10
2022-09-15T22:52:13.247Z,13.20
2022-09-15T22:54:39.815Z,13.10
2022-09-15T22:57:06.565Z,13.10
2022-09-15T22:59:33.100Z,13.00
2022-09-15T23:01:59.720Z,13.10
2022-09-15T23:04:26.367Z,13.20
2022-09-15T23:06:52.924Z,13.40
2022-09-15T23:09:19.514Z,13.20
2022-09-15T23:11:46.055Z,13.20
2022-09-15T23:14:15.200Z,13.00
2022-09-15T23:16:42.808Z,13.10
2022-09-15T23:19:11.517Z,13.10
2022-09-15T23:21:38.188Z,13.20
2022-09-15T23:24:04.841Z,13.10
2022-09-15T23:26:31.653Z,13.40
2022-09-15T23:28:58.198Z,13.20
2022-09-15T23:31:24.924Z,13.10
2022-09-15T23:33:51.734Z,13.50
2022-09-15T23:36:21.842Z,13.30
2022-09-15T23:38:48.832Z,13.30
2022-09-15T23:41:16.471Z,13.20
2022-09-15T23:43:43.304Z,13.40
2022-09-15T23:46:10.131Z,13.40
2022-09-15T23:48:36.851Z,13.20
2022-09-15T23:51:03.955Z,13.40
2022-09-15T23:53:30.553Z,13.40
2022-09-15T23:55:57.160Z,13.40
2022-09-15T23:58:23.777Z,13.30
